Huvudsida
METAR-TAF:

METAR-TAF

Flygplatser :

Bologna Guglielmo Marconis flygplats

Bologna, Italien

latitud: 44-32N, longitud: 011-18E, höjd: 36 m

Aktuellt väderrapport

Denna rapport gjordes för 38 minuter sedan, klockan 06:20 UTC
Vind 4 kt från väst
Temperatur 0°C
Fuktighet 74%
Tryck 999 hPa
Sikt 10 km eller mer
Spridda moln på en höjd av 6000 ft

METAR: LIPE 250620Z 26004KT 9999 SCT060 M00/M04 Q0999

Tid: 07:58 (06:58 UTC)

Väderprognos

Denna rapport gjordes för 1 timme och 58 minuter sedan, klockan 05:00 UTC
Prognos gäller från 25 kl. 06 UTC till 26 kl. 06 UTC
Vind 7 kt från väst
Sikt 10 km eller mer
Spridda moln på en höjd av 4000 ft
Sannolikhet 40% :
Temporärt
från 25 kl. 08 UTC till 25 kl. 12 UTC
Sikt: 4000 m
regn

TAF: LIPE 250500Z 2506/2606 28007KT 9999 SCT040 PROB40 TEMPO 2508/2512 4000 RA

Aktuella väderrapporter och prognoser från 4000 flygplatser (METAR- och TAF-rapporter).

De tillgängliga stationerna syns som gula och röda prickar på kartan.

För musen över prickarna för att se namnen på stationerna.

Klicka sedan för att få väderrapporter och prognoser.

För att ändra kartan: Klicka på de gröna knapparna med ett svart kors på för att zooma in; den gröna knappen med ett streck på för att zooma ut; eller på de gröna pilarna för angränsande kartor.


METAR-TAF: